Time;durP1;ratioP1;P1;durP2;ratioP2;P2;SDS_P1;SDS_P2;PMS_P1;PMS_P2;Temp;Humidity;BMP_temperature;BMP_pressure;BME280_temperature;BME280_humidity;BME280_pressure;Samples;Min_cycle;Max_cycle;Signal;HPM_P1;HPM_P2
2022/12/30 00:00:28;;;;;;;;;14.00;8.00;;;;;6.00;100.00;100534.19;5064292;28;45360;-90
2022/12/30 00:02:54;;;;;;;;;7.75;7.00;;;;;5.61;100.00;100474.75;5048599;28;45286;-89
2022/12/30 00:05:19;;;;;;;;;6.00;6.00;;;;;4.67;100.00;100310.59;5059192;28;46332;-91
2022/12/30 00:07:45;;;;;;;;;6.00;6.00;;;;;5.95;100.00;100532.41;5057181;28;45628;-91
2022/12/30 00:10:10;;;;;;;;;7.25;6.25;;;;;4.06;100.00;100220.72;5045077;28;45471;-90
2022/12/30 00:35:10;;;;;;;;;8.25;7.75;;;;;5.30;100.00;100422.34;4960487;28;45330;-90
2022/12/30 00:37:35;;;;;;;;;9.00;9.00;;;;;4.59;100.00;100304.50;4958565;28;47345;-90
2022/12/30 00:40:01;;;;;;;;;10.00;7.25;;;;;5.76;100.00;100508.81;4943099;28;45478;-90
2022/12/30 00:45:10;;;;;;;;;10.25;9.75;;;;;5.31;100.00;100421.47;4963180;28;45522;-89
2022/12/30 00:47:35;;;;;;;;;5.50;3.75;;;;;4.42;100.00;100289.66;4958429;28;45438;-90
2022/12/30 00:58:15;;;;;;;;;7.50;4.50;;;;;5.12;100.00;100433.72;4958584;28;45008;-94
2022/12/30 01:00:40;;;;;;;;;4.50;4.50;;;;;4.25;100.00;100265.19;4957495;28;44917;-94
2022/12/30 01:03:06;;;;;;;;;6.00;6.00;;;;;5.02;100.00;100417.09;4946940;28;45324;-95
2022/12/30 01:05:31;;;;;;;;;1.50;0.00;;;;;4.67;100.00;100344.63;4990454;28;45468;-94
2022/12/30 01:07:57;;;;;;;;;8.75;8.00;;;;;4.80;100.00;100356.84;5040623;28;46094;-93
2022/12/30 01:10:22;;;;;;;;;6.00;4.50;;;;;4.75;100.00;100356.00;5055770;28;44802;-93
2022/12/30 01:12:47;;;;;;;;;8.50;5.50;;;;;4.62;100.00;100343.75;5039206;28;45260;-93
2022/12/30 01:15:16;;;;;;;;;8.25;4.00;;;;;3.88;100.00;100215.47;5060161;28;44869;-94
2022/12/30 01:17:42;;;;;;;;;8.25;6.50;;;;;3.24;100.00;100109.06;5056382;28;46982;-94
2022/12/30 01:20:08;;;;;;;;;8.75;5.50;;;;;4.20;100.00;100280.88;5066040;28;45334;-93
2022/12/30 01:22:33;;;;;;;;;10.00;7.25;;;;;4.90;100.00;100391.78;5049345;28;45254;-93
2022/12/30 01:25:00;;;;;;;;;8.25;4.50;;;;;4.07;100.00;100251.25;5056377;28;44897;-94
2022/12/30 01:27:27;;;;;;;;;6.00;4.00;;;;;3.96;100.00;100245.09;5058678;28;45526;-93
2022/12/30 01:29:53;;;;;;;;;4.00;3.00;;;;;4.91;100.00;100379.56;5049354;28;45437;-94
2022/12/30 01:32:20;;;;;;;;;4.50;3.00;;;;;5.33;100.00;100482.63;5061506;28;45312;-96
2022/12/30 01:34:46;;;;;;;;;6.75;5.50;;;;;3.40;100.00;100155.22;5060157;28;45209;-94
2022/12/30 01:37:13;;;;;;;;;8.50;5.50;;;;;3.31;100.00;100116.91;5045990;28;46327;-93
2022/12/30 01:39:40;;;;;;;;;6.00;5.00;;;;;4.69;100.00;100358.63;5048107;28;45724;-94
2022/12/30 01:42:23;;;;;;;;;3.25;3.00;;;;;5.28;100.00;100482.63;5043696;28;45336;-93
2022/12/30 01:45:09;;;;;;;;;7.75;7.75;;;;;5.28;100.00;100460.78;5062923;28;45467;-95
2022/12/30 01:47:42;;;;;;;;;7.00;5.50;;;;;4.12;100.00;100276.53;4996426;28;47283;-94
2022/12/30 01:50:47;;;;;;;;;6.75;5.25;;;;;3.40;100.00;100154.38;4994539;28;45278;-93
2022/12/30 01:53:19;;;;;;;;;7.50;3.25;;;;;3.88;100.00;100225.91;4994501;28;45323;-93
2022/12/30 01:56:07;;;;;;;;;5.50;5.50;;;;;4.72;100.00;100371.72;5001319;28;45290;-92
2022/12/30 01:58:43;;;;;;;;;6.75;3.00;;;;;5.16;100.00;100459.91;4995842;28;45572;-94
2022/12/30 02:01:10;;;;;;;;;8.75;7.00;;;;;4.65;100.00;100388.28;4978521;28;44673;-93
2022/12/30 02:03:44;;;;;;;;;8.25;6.75;;;;;3.00;100.00;100090.69;4991007;28;45425;-93
2022/12/30 02:06:11;;;;;;;;;6.25;6.25;;;;;4.94;100.00;100442.44;4998988;28;45410;-94
2022/12/30 02:08:37;;;;;;;;;7.50;6.50;;;;;4.45;100.00;100365.56;5002784;28;47009;-93
2022/12/30 02:11:04;;;;;;;;;6.50;6.50;;;;;4.92;100.00;100444.16;4999923;28;46302;-93
2022/12/30 02:13:31;;;;;;;;;7.25;7.25;;;;;5.05;100.00;100485.22;5005298;28;45405;-93
2022/12/30 02:16:30;;;;;;;;;3.50;3.25;;;;;4.54;100.00;100398.72;4993093;28;45552;-93
2022/12/30 02:19:01;;;;;;;;;11.75;8.50;;;;;5.03;100.00;100460.78;4993237;28;45390;-94
2022/12/30 02:21:42;;;;;;;;;9.50;7.50;;;;;2.89;100.00;100115.03;4985924;28;45298;-93
2022/12/30 02:24:23;;;;;;;;;8.50;7.00;;;;;5.05;100.00;100451.16;5000967;28;45343;-92
2022/12/30 02:27:15;;;;;;;;;9.75;9.75;;;;;5.08;100.00;100456.41;5055032;28;45016;-93
2022/12/30 02:30:00;;;;;;;;;8.00;6.25;;;;;5.11;100.00;100443.31;5063172;28;47023;-93
2022/12/30 02:33:08;;;;;;;;;11.25;6.25;;;;;3.81;100.00;100221.53;4996778;28;45293;-93
2022/12/30 02:35:53;;;;;;;;;6.00;6.00;;;;;4.35;100.00;100305.34;4971740;28;45310;-95
2022/12/30 02:38:36;;;;;;;;;11.50;9.75;;;;;4.95;100.00;100392.66;5005208;28;45248;-94
2022/12/30 02:46:59;;;;;;;;;6.25;5.00;;;;;4.93;100.00;100376.06;4997003;28;44696;-93
2022/12/30 02:49:25;;;;;;;;;8.25;8.00;;;;;4.83;100.00;100352.47;5013960;28;44971;-93
2022/12/30 02:54:37;;;;;;;;;9.75;8.00;;;;;4.87;100.00;100354.25;5003331;28;45287;-94
2022/12/30 02:57:24;;;;;;;;;12.75;11.75;;;;;4.68;100.00;100314.97;5008741;28;45211;-93
2022/12/30 03:06:43;;;;;;;;;18.50;13.75;;;;;5.47;100.00;100399.59;4954928;28;45313;-94
2022/12/30 03:09:18;;;;;;;;;12.75;12.00;;;;;5.48;100.00;100403.97;4946891;28;45462;-93
2022/12/30 03:11:44;;;;;;;;;8.00;8.00;;;;;5.50;100.00;100396.09;4971035;28;45239;-94
2022/12/30 03:14:22;;;;;;;;;12.25;10.50;;;;;3.66;100.00;100089.06;4990670;28;45267;-93
2022/12/30 03:16:54;;;;;;;;;13.50;9.75;;;;;5.37;100.00;100397.88;4973339;28;45419;-95
2022/12/30 03:19:28;;;;;;;;;11.00;8.00;;;;;4.57;100.00;100228.59;4965587;28;45288;-94
2022/12/30 03:21:54;;;;;;;;;15.75;11.75;;;;;4.27;100.00;100177.13;4989097;28;45717;-94
2022/12/30 03:27:17;;;;;;;;;10.75;9.00;;;;;4.98;100.00;100276.53;4977917;28;45369;-91
2022/12/30 03:29:45;;;;;;;;;10.25;10.25;;;;;5.59;100.00;100366.38;4982654;28;45314;-93
2022/12/30 03:32:14;;;;;;;;;12.25;9.50;;;;;3.83;100.00;100081.25;4971635;28;45373;-92
2022/12/30 03:34:41;;;;;;;;;10.00;9.00;;;;;5.40;100.00;100342.81;4971937;28;47055;-93
2022/12/30 03:37:11;;;;;;;;;11.75;10.25;;;;;5.63;100.00;100391.69;4979026;28;44739;-95
2022/12/30 03:39:42;;;;;;;;;14.00;10.00;;;;;5.63;100.00;100382.09;4976008;28;44823;-93
2022/12/30 03:42:10;;;;;;;;;9.75;9.25;;;;;4.49;100.00;100195.44;4989158;28;45200;-92
2022/12/30 03:44:41;;;;;;;;;9.00;9.00;;;;;4.94;100.00;100249.47;5028636;28;48303;-93
2022/12/30 03:47:14;;;;;;;;;4.75;3.25;;;;;4.80;100.00;100228.53;5025064;28;44850;-93
2022/12/30 03:49:42;;;;;;;;;13.75;11.50;;;;;4.39;100.00;100150.94;5042918;28;45237;-94
2022/12/30 03:52:10;;;;;;;;;12.75;9.75;;;;;4.57;100.00;100180.56;5025041;28;45221;-93
2022/12/30 03:54:35;;;;;;;;;10.00;7.50;;;;;4.00;100.00;100061.16;5032502;28;46826;-94
2022/12/30 03:57:00;;;;;;;;;8.00;7.00;;;;;5.56;100.00;100342.75;5019231;28;44726;-94
2022/12/30 03:59:28;;;;;;;;;10.25;9.25;;;;;3.94;100.00;100055.94;5050385;28;45411;-92
2022/12/30 04:01:53;;;;;;;;;11.50;6.75;;;;;4.59;100.00;100165.75;5012434;28;45330;-94
2022/12/30 04:04:20;;;;;;;;;9.50;8.00;;;;;5.05;100.00;100225.00;5039643;28;48415;-93
2022/12/30 04:06:47;;;;;;;;;8.75;7.00;;;;;4.97;100.00;100223.25;5042223;28;45271;-92
2022/12/30 04:09:12;;;;;;;;;5.50;5.00;;;;;5.21;100.00;100273.84;5006377;28;45203;-91
2022/12/30 04:11:38;;;;;;;;;6.25;6.00;;;;;5.09;100.00;100230.22;5057835;28;44820;-92
2022/12/30 04:14:04;;;;;;;;;8.00;7.00;;;;;5.21;100.00;100241.53;5040952;28;47479;-91
2022/12/30 04:16:30;;;;;;;;;12.75;9.00;;;;;5.50;100.00;100292.09;5039093;28;44902;-91
2022/12/30 04:18:55;;;;;;;;;10.00;7.75;;;;;4.65;100.00;100164.84;5050502;28;45404;-91
2022/12/30 04:21:20;;;;;;;;;9.00;8.00;;;;;3.63;100.00;99980.19;5027101;28;45310;-91
2022/12/30 04:23:47;;;;;;;;;6.75;6.75;;;;;4.61;100.00;100140.44;5028916;28;47250;-93
2022/12/30 04:26:13;;;;;;;;;12.75;8.50;;;;;4.44;100.00;100116.91;5032350;28;45375;-91
2022/12/30 04:28:39;;;;;;;;;11.75;11.50;;;;;5.27;100.00;100247.63;5028092;28;45349;-92
2022/12/30 04:31:06;;;;;;;;;7.50;7.50;;;;;3.36;100.00;99919.22;5040531;28;45293;-92
2022/12/30 04:33:32;;;;;;;;;9.50;7.00;;;;;5.69;100.00;100332.25;5031187;28;47365;-93
2022/12/30 04:35:58;;;;;;;;;11.25;11.25;;;;;5.42;100.00;100275.53;5026005;28;45292;-92
2022/12/30 04:38:23;;;;;;;;;9.75;8.25;;;;;5.24;100.00;100244.13;5035988;28;44620;-91
2022/12/30 04:40:49;;;;;;;;;9.50;8.75;;;;;5.29;100.00;100243.25;5043632;28;44809;-91
2022/12/30 04:43:15;;;;;;;;;10.75;9.25;;;;;4.93;100.00;100173.50;5046567;28;47765;-91
2022/12/30 04:45:41;;;;;;;;;7.75;6.00;;;;;5.27;100.00;100246.78;5045374;28;45430;-93
2022/12/30 04:48:09;;;;;;;;;10.25;9.00;;;;;5.74;100.00;100299.88;5024655;28;45309;-92
2022/12/30 04:50:34;;;;;;;;;9.50;9.00;;;;;4.87;100.00;100142.97;5029913;28;45340;-93
2022/12/30 04:53:00;;;;;;;;;7.50;5.75;;;;;3.82;100.00;99985.38;5049250;28;47304;-93
2022/12/30 04:55:25;;;;;;;;;8.00;5.25;;;;;4.83;100.00;100137.75;5033030;28;45399;-95
2022/12/30 04:57:51;;;;;;;;;8.50;3.00;;;;;5.01;100.00;100150.78;5029892;28;45404;-96
2022/12/30 05:00:17;;;;;;;;;10.25;9.00;;;;;5.08;100.00;100165.59;5042076;28;45238;-93
2022/12/30 05:02:42;;;;;;;;;7.00;7.00;;;;;4.87;100.00;100126.38;5023429;28;45566;-94
2022/12/30 05:05:08;;;;;;;;;8.00;8.00;;;;;4.90;100.00;100115.91;5044681;28;45338;-93
2022/12/30 05:07:34;;;;;;;;;6.50;5.50;;;;;3.22;100.00;99820.84;5028331;28;45327;-92
2022/12/30 05:10:00;;;;;;;;;6.00;4.75;;;;;4.96;100.00;100126.34;5027432;28;45376;-91
2022/12/30 05:12:26;;;;;;;;;10.00;7.75;;;;;5.39;100.00;100189.06;5042054;28;46494;-93
2022/12/30 05:14:51;;;;;;;;;8.75;8.25;;;;;5.90;100.00;100258.72;5040129;28;45356;-93
2022/12/30 05:17:17;;;;;;;;;9.50;6.00;;;;;4.96;100.00;100073.97;5025271;28;45420;-92
2022/12/30 05:19:42;;;;;;;;;2.25;2.00;;;;;5.93;100.00;100211.47;5029632;28;45634;-94
2022/12/30 05:22:08;;;;;;;;;8.75;8.75;;;;;4.07;100.00;99903.34;5028182;28;46010;-92
2022/12/30 05:27:18;;;;;;;;;10.50;7.75;;;;;5.55;100.00;100120.81;5052264;28;45280;-92
2022/12/30 05:29:44;;;;;;;;;6.00;5.00;;;;;4.74;100.00;100000.75;5026543;28;45254;-92
2022/12/30 05:32:10;;;;;;;;;3.00;2.75;;;;;6.07;100.00;100221.91;5028051;28;47380;-90
2022/12/30 05:34:35;;;;;;;;;8.00;7.00;;;;;4.40;100.00;99917.16;5046103;28;45266;-93
2022/12/30 05:37:01;;;;;;;;;1.75;1.75;;;;;3.57;100.00;99797.25;5054298;28;45263;-91
2022/12/30 05:39:27;;;;;;;;;9.00;5.25;;;;;6.17;100.00;100200.81;5030492;28;45220;-94
2022/12/30 05:41:52;;;;;;;;;3.25;3.25;;;;;5.80;100.00;100131.97;5028301;28;48834;-93
2022/12/30 05:44:18;;;;;;;;;4.75;3.00;;;;;6.23;100.00;100206.00;5026674;28;45266;-92
2022/12/30 05:46:43;;;;;;;;;5.75;4.00;;;;;5.80;100.00;100104.00;5032993;28;45183;-93
2022/12/30 05:49:09;;;;;;;;;2.00;2.00;;;;;6.04;100.00;100137.09;5030430;28;45170;-93
2022/12/30 05:51:34;;;;;;;;;5.25;3.00;;;;;4.04;100.00;99767.38;5047147;28;47682;-93
2022/12/30 05:54:00;;;;;;;;;5.00;4.00;;;;;6.05;100.00;100122.19;5043902;28;45792;-92
2022/12/30 05:56:25;;;;;;;;;4.00;3.00;;;;;4.27;100.00;99806.47;5042870;28;45230;-94
2022/12/30 05:58:51;;;;;;;;;4.25;3.00;;;;;5.27;100.00;99945.41;5046874;28;44870;-92
2022/12/30 06:01:17;;;;;;;;;3.50;3.00;;;;;5.41;100.00;99969.72;5043206;28;47301;-93
2022/12/30 06:03:43;;;;;;;;;8.50;5.00;;;;;4.67;100.00;99835.84;5043223;28;46298;-93
2022/12/30 06:06:10;;;;;;;;;4.50;4.50;;;;;5.16;100.00;99914.91;5046777;28;45349;-93
2022/12/30 06:08:37;;;;;;;;;3.00;2.25;;;;;5.79;100.00;99986.84;5050596;28;45238;-94
2022/12/30 06:11:03;;;;;;;;;2.25;1.50;;;;;6.13;100.00;100052.13;5046548;28;46753;-93
2022/12/30 06:13:31;;;;;;;;;6.75;3.50;;;;;5.72;100.00;99976.44;5074085;28;44921;-93
2022/12/30 06:15:56;;;;;;;;;3.25;3.25;;;;;6.69;100.00;100122.44;5071663;28;45382;-93
2022/12/30 06:18:22;;;;;;;;;4.25;4.00;;;;;5.88;100.00;99968.41;5057228;28;44900;-93
2022/12/30 06:20:52;;;;;;;;;4.00;2.00;;;;;4.97;100.00;99809.41;5060933;28;45463;-94
2022/12/30 06:23:18;;;;;;;;;7.25;3.25;;;;;5.73;100.00;99915.25;5066807;28;44984;-94
2022/12/30 06:25:44;;;;;;;;;6.50;4.75;;;;;5.55;100.00;99877.00;5055373;28;45269;-93
2022/12/30 06:28:11;;;;;;;;;7.00;4.75;;;;;5.13;100.00;99812.75;5051000;28;45675;-92
2022/12/30 06:30:37;;;;;;;;;3.00;2.00;;;;;4.90;100.00;99754.47;5034522;28;47235;-93
2022/12/30 06:33:03;;;;;;;;;3.50;3.50;;;;;6.33;100.00;99961.81;5073096;28;44785;-93
2022/12/30 06:35:28;;;;;;;;;6.00;4.00;;;;;6.03;100.00;99924.56;5074134;28;45253;-93
2022/12/30 06:37:54;;;;;;;;;4.25;3.00;;;;;6.17;100.00;99927.88;5057780;28;45615;-93
2022/12/30 06:40:20;;;;;;;;;7.75;3.75;;;;;5.02;100.00;99738.63;5058082;28;46376;-92
2022/12/30 06:42:46;;;;;;;;;4.50;4.50;;;;;6.03;100.00;99872.09;5067321;28;45343;-93
2022/12/30 06:45:11;;;;;;;;;0.75;0.50;;;;;6.11;100.00;99883.34;5049196;28;45159;-94
2022/12/30 06:47:37;;;;;;;;;3.50;3.00;;;;;5.74;100.00;99804.22;5050112;28;44947;-94
2022/12/30 06:50:02;;;;;;;;;0.50;0.50;;;;;7.07;100.00;100037.88;5038377;28;47349;-93
2022/12/30 06:52:28;;;;;;;;;5.50;3.50;;;;;7.09;100.00;100028.22;5056976;28;44750;-93
2022/12/30 06:54:53;;;;;;;;;3.50;3.50;;;;;5.98;100.00;99858.16;5066847;28;45256;-93
2022/12/30 06:57:22;;;;;;;;;2.75;2.25;;;;;5.76;100.00;99799.84;5048791;28;45257;-95
2022/12/30 06:59:48;;;;;;;;;8.00;4.25;;;;;5.87;100.00;99793.53;5047256;28;45655;-94
2022/12/30 07:05:36;;;;;;;;;4.00;3.00;;;;;5.46;100.00;99708.41;5068685;28;45545;-93
2022/12/30 07:08:02;;;;;;;;;2.75;2.00;;;;;4.98;100.00;99632.19;5069423;28;45240;-93
2022/12/30 07:10:28;;;;;;;;;2.50;2.50;;;;;7.22;100.00;99978.97;5055154;28;46178;-94
2022/12/30 07:12:53;;;;;;;;;0.75;0.75;;;;;5.85;100.00;99761.22;5067476;28;45390;-93
2022/12/30 07:15:20;;;;;;;;;3.50;2.75;;;;;7.28;100.00;99985.88;5047339;28;45321;-90
2022/12/30 07:17:46;;;;;;;;;3.00;3.00;;;;;6.48;100.00;99837.34;5032151;28;45246;-93
2022/12/30 07:20:12;;;;;;;;;2.00;2.00;;;;;6.13;100.00;99763.50;5041527;28;47027;-95
2022/12/30 07:22:39;;;;;;;;;4.50;3.00;;;;;6.53;100.00;99823.28;5030126;28;44795;-93
2022/12/30 07:25:07;;;;;;;;;1.50;1.50;;;;;5.50;100.00;99644.59;5030353;28;45395;-92
2022/12/30 07:27:33;;;;;;;;;1.00;1.00;;;;;6.11;100.00;99749.53;5044956;28;45351;-92
2022/12/30 07:29:58;;;;;;;;;2.00;2.00;;;;;5.31;100.00;99607.31;5020872;28;46724;-93
2022/12/30 07:32:24;;;;;;;;;2.00;2.00;;;;;6.18;100.00;99732.81;5006066;28;45496;-93
2022/12/30 07:34:49;;;;;;;;;2.00;2.00;;;;;6.43;100.00;99779.69;5014927;28;45361;-93
2022/12/30 07:37:15;;;;;;;;;2.00;2.00;;;;;7.47;100.00;99945.25;5062072;28;44865;-92
2022/12/30 07:39:41;;;;;;;;;2.00;1.75;;;;;6.29;100.00;99747.53;5043147;28;45155;-92
2022/12/30 07:42:42;;;;;;;;;1.00;1.00;;;;;7.52;100.00;99932.03;5037311;28;45520;-91
2022/12/30 07:45:09;;;;;;;;;2.50;2.00;;;;;6.25;100.00;99716.97;5036276;28;45380;-91
2022/12/30 07:47:34;;;;;;;;;0.00;0.00;;;;;7.50;100.00;99904.91;5021882;28;45546;-92
2022/12/30 07:50:01;;;;;;;;;2.25;2.00;;;;;6.90;100.00;99806.06;5000941;28;46932;-92
2022/12/30 07:52:27;;;;;;;;;1.25;0.25;;;;;7.22;100.00;99873.81;5002350;28;45511;-90
2022/12/30 07:54:52;;;;;;;;;3.00;2.00;;;;;6.25;100.00;99707.34;5006073;28;45480;-92
2022/12/30 07:57:19;;;;;;;;;5.00;3.00;;;;;6.59;100.00;99772.44;5023405;28;45391;-90
2022/12/30 07:59:45;;;;;;;;;3.25;1.75;;;;;7.67;100.00;99922.09;5019929;28;47230;-92
2022/12/30 08:02:25;;;;;;;;;5.00;2.50;;;;;6.93;100.00;99792.88;5027982;28;45549;-92
2022/12/30 08:04:51;;;;;;;;;4.00;3.00;;;;;6.67;100.00;99753.91;5010152;28;45293;-92
2022/12/30 08:07:17;;;;;;;;;1.50;1.50;;;;;7.54;100.00;99888.16;5044747;28;45218;-92
2022/12/30 08:09:43;;;;;;;;;2.50;2.00;;;;;5.78;100.00;99609.22;5021301;28;47520;-93
2022/12/30 08:12:09;;;;;;;;;2.25;2.25;;;;;6.01;100.00;99627.25;5056929;28;45281;-92
2022/12/30 08:14:34;;;;;;;;;2.00;1.00;;;;;7.73;100.00;99901.84;5067468;28;45313;-92
2022/12/30 08:17:00;;;;;;;;;2.75;2.00;;;;;6.58;100.00;99713.78;5048090;28;45307;-91
2022/12/30 08:19:27;;;;;;;;;1.25;1.00;;;;;7.07;100.00;99787.34;5065857;28;47074;-93
2022/12/30 08:21:53;;;;;;;;;1.50;1.50;;;;;7.73;100.00;99896.56;5056226;28;45388;-91
2022/12/30 08:24:19;;;;;;;;;2.00;2.00;;;;;7.21;100.00;99776.59;5058592;28;45770;-92
2022/12/30 08:26:44;;;;;;;;;4.00;2.00;;;;;7.73;100.00;99874.63;5029848;28;45328;-91
2022/12/30 08:29:10;;;;;;;;;2.00;1.50;;;;;7.14;100.00;99790.75;5046625;28;46533;-90
2022/12/30 08:31:35;;;;;;;;;1.50;1.50;;;;;7.46;100.00;99855.88;5039665;28;45515;-91
2022/12/30 08:34:01;;;;;;;;;0.50;0.50;;;;;7.08;100.00;99797.84;5038730;28;45272;-90
2022/12/30 08:36:28;;;;;;;;;0.75;0.75;;;;;7.37;100.00;99861.31;5024434;28;45282;-91
2022/12/30 08:38:58;;;;;;;;;2.00;1.00;;;;;7.41;100.00;99868.22;5038647;28;48113;-90
2022/12/30 08:41:30;;;;;;;;;1.25;0.75;;;;;7.33;100.00;99847.34;5026746;28;45328;-92
2022/12/30 08:43:58;;;;;;;;;1.75;1.75;;;;;7.06;100.00;99801.38;5046910;28;46109;-91
2022/12/30 08:46:25;;;;;;;;;3.75;2.00;;;;;7.24;100.00;99840.50;5042008;28;45403;-91
2022/12/30 08:48:50;;;;;;;;;5.00;2.25;;;;;7.15;100.00;99830.16;5045568;28;47304;-91
2022/12/30 08:51:16;;;;;;;;;4.75;2.00;;;;;6.76;100.00;99774.78;5049890;28;45265;-90
2022/12/30 08:53:49;;;;;;;;;3.00;2.00;;;;;6.91;100.00;99790.25;5057433;28;45041;-94
2022/12/30 08:56:21;;;;;;;;;4.00;3.00;;;;;7.03;100.00;99814.56;5023075;28;45487;-93
2022/12/30 08:58:53;;;;;;;;;4.25;2.00;;;;;6.87;100.00;99770.19;5019974;28;48259;-93
2022/12/30 09:01:25;;;;;;;;;1.75;1.75;;;;;6.65;100.00;99742.56;5020005;28;45356;-93
2022/12/30 09:03:51;;;;;;;;;2.50;2.00;;;;;6.55;100.00;99740.09;5024049;28;45389;-91
2022/12/30 09:06:20;;;;;;;;;3.00;3.00;;;;;6.81;100.00;99777.31;5021656;28;45389;-94
2022/12/30 09:08:50;;;;;;;;;1.75;1.00;;;;;6.67;100.00;99741.66;5037628;28;45439;-93
2022/12/30 09:11:26;;;;;;;;;2.25;1.75;;;;;6.68;100.00;99750.38;5033083;28;45234;-93
2022/12/30 09:13:51;;;;;;;;;3.00;2.00;;;;;6.88;100.00;99764.03;5021822;28;45337;-93
2022/12/30 09:16:19;;;;;;;;;2.00;2.00;;;;;6.87;100.00;99757.06;5049561;28;45230;-93
2022/12/30 09:18:46;;;;;;;;;4.00;3.00;;;;;6.65;100.00;99722.44;5043087;28;47321;-92
2022/12/30 09:21:12;;;;;;;;;2.50;2.00;;;;;6.78;100.00;99725.69;5046478;28;44843;-91
2022/12/30 09:23:38;;;;;;;;;3.25;2.25;;;;;6.81;100.00;99751.91;5044724;28;45390;-91
2022/12/30 09:26:05;;;;;;;;;4.00;2.50;;;;;6.85;100.00;99742.22;5037027;28;45375;-90
2022/12/30 09:28:41;;;;;;;;;4.75;2.50;;;;;6.80;100.00;99742.28;5025256;28;46375;-93
2022/12/30 09:31:06;;;;;;;;;2.00;2.00;;;;;6.84;100.00;99749.22;5032851;28;45305;-90
2022/12/30 09:40:55;;;;;;;;;2.00;2.00;;;;;6.88;100.00;99739.56;4999942;28;45845;-90
2022/12/30 09:43:52;;;;;;;;;1.75;1.75;;;;;6.92;100.00;99739.47;5023618;28;45486;-93
2022/12/30 09:46:45;;;;;;;;;5.50;2.00;;;;;6.90;100.00;99720.22;5021566;28;45468;-91
2022/12/30 09:52:47;;;;;;;;;2.25;2.25;;;;;7.01;100.00;99706.03;5009081;28;47239;-93
2022/12/30 09:55:22;;;;;;;;;2.00;2.00;;;;;7.02;100.00;99713.00;5000699;28;45502;-90
2022/12/30 09:58:24;;;;;;;;;4.50;2.50;;;;;7.08;100.00;99705.88;4985057;28;45531;-92
2022/12/30 10:01:14;;;;;;;;;2.00;1.00;;;;;7.13;100.00;99694.41;4988463;28;45291;-92
2022/12/30 10:03:42;;;;;;;;;3.25;3.00;;;;;7.15;100.00;99688.22;5020243;28;47495;-91
2022/12/30 10:06:51;;;;;;;;;3.00;2.75;;;;;6.96;100.00;99640.44;5025551;28;45571;-92
2022/12/30 10:09:38;;;;;;;;;2.50;1.75;;;;;6.95;100.00;99649.19;4961496;28;45572;-94
2022/12/30 10:12:17;;;;;;;;;1.00;1.00;;;;;7.08;100.00;99644.56;4978223;28;45377;-91
2022/12/30 10:14:45;;;;;;;;;2.00;2.00;;;;;7.25;100.00;99668.72;4961122;28;47515;-92
2022/12/30 10:17:26;;;;;;;;;3.00;3.00;;;;;7.31;100.00;99661.63;4949408;28;45376;-89
2022/12/30 10:27:21;;;;;;;;;2.00;2.00;;;;;7.38;100.00;99621.13;4926126;28;45460;-93
2022/12/30 10:29:53;;;;;;;;;3.00;2.00;;;;;7.40;100.00;99614.09;4910614;28;45835;-91
2022/12/30 10:32:41;;;;;;;;;3.75;2.50;;;;;7.31;100.00;99580.13;4907974;28;45383;-90
2022/12/30 10:35:22;;;;;;;;;1.00;1.00;;;;;7.35;100.00;99568.63;4922839;28;45261;-91
2022/12/30 10:38:01;;;;;;;;;1.00;1.00;;;;;7.37;100.00;99574.75;4910335;28;47203;-94
2022/12/30 10:40:45;;;;;;;;;1.00;1.00;;;;;7.41;100.00;99573.75;4914509;28;45362;-93
2022/12/30 10:43:11;;;;;;;;;1.50;1.50;;;;;7.60;100.00;99566.31;4926386;28;45379;-94
2022/12/30 10:46:22;;;;;;;;;0.00;0.00;;;;;7.79;100.00;99600.94;4919499;28;45281;-94
2022/12/30 10:49:13;;;;;;;;;0.50;0.50;;;;;7.69;100.00;99552.09;4893216;29;46406;-93
2022/12/30 10:51:41;;;;;;;;;0.50;0.50;;;;;7.81;100.00;99557.91;4872899;29;45320;-94
2022/12/30 10:54:09;;;;;;;;;1.00;1.00;;;;;7.91;100.00;99562.91;4873119;29;45420;-93
2022/12/30 10:56:36;;;;;;;;;0.75;0.75;;;;;8.10;100.00;99569.44;4875475;29;45585;-94
2022/12/30 10:59:10;;;;;;;;;3.00;1.00;;;;;7.88;100.00;99511.25;4875709;28;47201;-94
2022/12/30 11:01:36;;;;;;;;;1.00;1.00;;;;;7.99;100.00;99519.72;4905028;28;45474;-94
2022/12/30 11:04:03;;;;;;;;;0.00;0.00;;;;;8.22;100.00;99563.00;4906525;28;45335;-94
2022/12/30 11:06:31;;;;;;;;;1.00;1.00;;;;;8.12;100.00;99536.06;4909542;28;45295;-95
2022/12/30 11:09:24;;;;;;;;;1.00;1.00;;;;;8.12;100.00;99498.34;4926626;28;47523;-95
2022/12/30 11:14:42;;;;;;;;;1.00;1.00;;;;;8.27;100.00;99490.03;4965414;28;45472;-93
2022/12/30 11:17:22;;;;;;;;;1.25;1.25;;;;;8.53;100.00;99536.75;4970479;28;45087;-94
2022/12/30 11:19:50;;;;;;;;;0.50;0.50;;;;;8.20;100.00;99483.22;4965269;28;47065;-94
2022/12/30 11:22:19;;;;;;;;;1.00;1.00;;;;;8.22;100.00;99457.72;4944487;28;45615;-94
2022/12/30 11:25:07;;;;;;;;;1.00;1.00;;;;;8.64;100.00;99512.75;4981520;28;45311;-93
2022/12/30 11:28:00;;;;;;;;;0.25;0.25;;;;;8.45;100.00;99469.41;4946926;28;45398;-93
2022/12/30 11:30:30;;;;;;;;;1.50;0.75;;;;;8.79;100.00;99505.28;4963415;28;48088;-92
2022/12/30 11:32:58;;;;;;;;;0.00;0.00;;;;;8.61;100.00;99477.69;4971493;28;45398;-92
2022/12/30 11:35:39;;;;;;;;;0.25;0.00;;;;;8.81;100.00;99487.66;4961198;28;45517;-93
2022/12/30 11:38:29;;;;;;;;;0.75;0.75;;;;;8.83;100.00;99483.22;4961741;28;45638;-93
2022/12/30 11:40:56;;;;;;;;;1.00;1.00;;;;;8.71;100.00;99450.19;4949741;28;46289;-93
2022/12/30 11:43:23;;;;;;;;;0.25;0.25;;;;;8.85;100.00;99466.44;4987009;28;45510;-93
2022/12/30 11:45:59;;;;;;;;;1.00;0.25;;;;;8.99;100.00;99502.06;4986475;28;45529;-91
2022/12/30 11:48:48;;;;;;;;;1.00;1.00;;;;;8.89;100.00;99483.03;4964562;28;45101;-89
2022/12/30 11:51:24;;;;;;;;;1.00;1.00;;;;;8.91;100.00;99472.44;4977503;28;46838;-91
2022/12/30 11:54:06;;;;;;;;;1.00;1.00;;;;;9.13;100.00;99502.50;4982369;28;45512;-94
2022/12/30 11:56:32;;;;;;;;;0.00;0.00;;;;;9.00;100.00;99451.06;4978766;28;45426;-93
2022/12/30 11:59:18;;;;;;;;;0.50;0.50;;;;;9.13;100.00;99472.66;4977237;28;45307;-92
2022/12/30 12:01:47;;;;;;;;;1.00;0.00;;;;;9.19;100.00;99477.72;4977164;28;45637;-92
2022/12/30 12:04:45;;;;;;;;;0.25;0.25;;;;;9.13;100.00;99468.22;4995776;28;45369;-92
2022/12/30 12:07:17;;;;;;;;;0.00;0.00;;;;;9.35;100.00;99483.34;4980593;28;45367;-93
2022/12/30 12:09:59;;;;;;;;;1.25;0.25;;;;;9.40;100.00;99503.41;4962519;28;45509;-92
2022/12/30 12:12:32;;;;;;;;;0.00;0.00;;;;;9.39;100.00;99469.16;4981270;28;45526;-92
2022/12/30 12:15:19;;;;;;;;;1.00;0.00;;;;;9.52;100.00;99475.75;4950428;28;45338;-92
2022/12/30 12:18:02;;;;;;;;;0.25;0.00;;;;;9.51;100.00;99468.75;4945803;28;45407;-93
2022/12/30 12:20:41;;;;;;;;;1.00;1.00;;;;;9.64;100.00;99469.22;4944790;28;45805;-92
2022/12/30 12:23:54;;;;;;;;;1.75;0.25;;;;;9.37;100.00;99431.44;4946368;28;45626;-93
2022/12/30 12:26:27;;;;;;;;;1.00;1.00;;;;;9.51;100.00;99446.81;4908413;28;45365;-92
2022/12/30 12:28:57;;;;;;;;;0.00;0.00;;;;;9.73;100.00;99475.94;4932633;28;44740;-93
2022/12/30 12:32:12;;;;;;;;;;;;;;;;;;;;;
2022/12/30 12:35:23;;;;;;;;;0.75;0.75;;;;;9.91;100.00;99471.81;4922769;28;75728;-92
2022/12/30 12:38:26;;;;;;;;;0.25;0.00;;;;;9.97;100.00;99463.69;4907553;28;45256;-93
2022/12/30 12:58:04;;;;;;;;;0.00;0.00;;;;;10.35;100.00;99463.25;4937300;28;45395;-93
2022/12/30 13:01:19;;;;;;;;;0.00;0.00;;;;;10.13;100.00;99424.41;4932312;28;45539;-92
2022/12/30 13:04:40;;;;;;;;;;;;;;;;;;;;;
2022/12/30 13:07:50;;;;;;;;;0.00;0.00;;;;;10.37;100.00;99424.44;4911580;28;68869;-94
2022/12/30 13:11:01;;;;;;;;;1.00;1.00;;;;;10.63;100.00;99463.13;4902505;29;45459;-92
2022/12/30 13:14:03;;;;;;;;;0.00;0.00;;;;;10.47;100.00;99439.88;4898607;28;46806;-94
2022/12/30 13:16:46;;;;;;;;;0.00;0.00;;;;;10.51;100.00;99429.19;4861774;29;45323;-94
2022/12/30 13:19:29;;;;;;;;;0.00;0.00;;;;;10.76;100.00;99460.84;4860307;29;45359;-94
2022/12/30 13:22:05;;;;;;;;;0.00;0.00;;;;;10.83;100.00;99457.06;4859774;29;45460;-93
2022/12/30 13:24:53;;;;;;;;;0.00;0.00;;;;;10.74;100.00;99437.13;4855990;29;45525;-93
2022/12/30 13:27:29;;;;;;;;;0.00;0.00;;;;;10.88;100.00;99446.31;4887118;28;45287;-93
2022/12/30 13:30:21;;;;;;;;;0.00;0.00;;;;;11.04;100.00;99460.66;4931116;28;45325;-94